createdAt,value
2017-01-18T00:00:02.138Z,0
2017-01-18T00:01:01.292Z,0
2017-01-18T00:02:01.660Z,0
2017-01-18T00:03:02.033Z,0
2017-01-18T00:04:01.230Z,0
2017-01-18T00:05:01.972Z,0
2017-01-18T00:06:00.737Z,0
2017-01-18T00:07:01.905Z,0
2017-01-18T00:08:01.488Z,0
2017-01-18T00:09:01.849Z,0
2017-01-18T00:10:01.849Z,0
2017-01-18T00:11:01.834Z,0
2017-01-18T00:12:01.746Z,0
2017-01-18T00:13:01.719Z,0
2017-01-18T00:14:01.295Z,0
2017-01-18T00:15:01.264Z,0
2017-01-18T00:16:01.682Z,0
2017-01-18T00:17:01.608Z,0
2017-01-18T00:18:01.166Z,0
2017-01-18T00:19:01.577Z,0
2017-01-18T00:20:01.508Z,0
2017-01-18T00:21:01.388Z,0
2017-01-18T00:22:01.046Z,0
2017-01-18T00:23:01.416Z,0
2017-01-18T00:24:01.071Z,0
2017-01-18T00:25:01.355Z,0
2017-01-18T00:26:00.983Z,0
2017-01-18T00:27:01.312Z,0
2017-01-18T00:28:01.271Z,0
2017-01-18T00:29:01.239Z,0
2017-01-18T00:30:01.214Z,0
2017-01-18T00:31:00.785Z,0
2017-01-18T00:32:00.759Z,0
2017-01-18T00:33:01.313Z,0
2017-01-18T00:34:00.738Z,0
2017-01-18T00:35:01.066Z,0
2017-01-18T00:36:01.027Z,0
2017-01-18T00:37:01.000Z,0
2017-01-18T00:38:00.963Z,0
2017-01-18T00:39:00.939Z,0
2017-01-18T00:40:00.968Z,0
2017-01-18T00:41:00.077Z,0
2017-01-18T00:42:00.443Z,0
2017-01-18T00:43:00.468Z,0
2017-01-18T00:44:00.393Z,0
2017-01-18T00:45:01.060Z,0
2017-01-18T00:46:00.735Z,0
2017-01-18T00:46:59.940Z,0
2017-01-18T00:48:00.665Z,0
2017-01-18T00:49:00.239Z,0
2017-01-18T00:50:00.232Z,0
2017-01-18T00:51:00.577Z,0
2017-01-18T00:52:00.144Z,0
2017-01-18T00:53:00.509Z,0
2017-01-18T00:54:00.093Z,0
2017-01-18T00:55:00.456Z,0
2017-01-18T00:56:00.433Z,0
2017-01-18T00:57:00.398Z,0
2017-01-18T00:58:00.676Z,0
2017-01-18T00:58:59.142Z,0
2017-01-18T00:59:59.906Z,0
2017-01-18T01:01:00.273Z,0
2017-01-18T01:01:59.841Z,0
2017-01-18T01:02:59.821Z,0
2017-01-18T01:03:59.385Z,0
2017-01-18T01:04:59.392Z,0
2017-01-18T01:05:59.731Z,0
2017-01-18T01:07:00.088Z,0
2017-01-18T01:08:00.071Z,0
2017-01-18T01:09:00.031Z,0
2017-01-18T01:09:59.609Z,0
2017-01-18T01:10:59.579Z,0
2017-01-18T01:11:59.145Z,0
2017-01-18T01:12:59.512Z,0
2017-01-18T01:13:59.883Z,0
2017-01-18T01:14:59.861Z,0
2017-01-18T01:15:59.828Z,0
2017-01-18T01:16:59.423Z,0
2017-01-18T01:17:59.763Z,0
2017-01-18T01:18:59.763Z,0
2017-01-18T01:19:58.897Z,0
2017-01-18T01:20:59.674Z,0
2017-01-18T01:21:59.657Z,0
2017-01-18T01:22:59.218Z,0
2017-01-18T01:23:59.637Z,0
2017-01-18T01:24:59.157Z,0
2017-01-18T01:25:59.528Z,0
2017-01-18T01:26:58.701Z,0
2017-01-18T01:28:00.173Z,0
2017-01-18T01:28:59.026Z,0
2017-01-18T01:29:59.419Z,0
2017-01-18T01:30:59.373Z,0
2017-01-18T01:31:58.557Z,0
2017-01-18T01:32:59.313Z,0
2017-01-18T01:33:59.338Z,0
2017-01-18T01:34:59.274Z,0
2017-01-18T01:35:58.824Z,0
2017-01-18T01:36:59.198Z,0
2017-01-18T01:37:59.181Z,0
2017-01-18T01:38:58.336Z,0
2017-01-18T01:39:59.107Z,0
2017-01-18T01:40:58.672Z,0
2017-01-18T01:41:58.240Z,0
2017-01-18T01:42:59.021Z,0
2017-01-18T01:43:58.594Z,0
2017-01-18T01:44:57.759Z,0
2017-01-18T01:45:58.994Z,0
2017-01-18T01:46:58.517Z,0
2017-01-18T01:47:58.923Z,0
2017-01-18T01:48:58.444Z,0
2017-01-18T01:49:58.419Z,0
2017-01-18T01:50:58.393Z,0
2017-01-18T01:51:58.352Z,0
2017-01-18T01:52:58.721Z,0
2017-01-18T01:53:58.722Z,0
2017-01-18T01:54:58.259Z,0
2017-01-18T01:55:58.635Z,0
2017-01-18T01:56:58.204Z,0
2017-01-18T01:57:58.583Z,0
2017-01-18T01:58:58.552Z,0
2017-01-18T01:59:58.532Z,0
2017-01-18T02:00:58.085Z,0
2017-01-18T02:01:58.049Z,0
2017-01-18T02:02:58.023Z,0
2017-01-18T02:03:58.391Z,0
2017-01-18T02:04:57.964Z,0
2017-01-18T02:05:58.328Z,0
2017-01-18T02:06:57.910Z,0
2017-01-18T02:07:58.269Z,0
2017-01-18T02:08:57.897Z,0
2017-01-18T02:09:57.461Z,0
2017-01-18T02:10:57.791Z,0
2017-01-18T02:11:58.208Z,0
2017-01-18T02:12:58.124Z,0
2017-01-18T02:13:58.115Z,0
2017-01-18T02:14:57.658Z,0
2017-01-18T02:15:57.736Z,0
2017-01-18T02:16:58.060Z,0
2017-01-18T02:17:58.017Z,0
2017-01-18T02:18:57.546Z,0
2017-01-18T02:19:57.901Z,0
2017-01-18T02:20:57.884Z,0
2017-01-18T02:21:57.855Z,0
2017-01-18T02:22:57.822Z,0
2017-01-18T02:23:57.425Z,0
2017-01-18T02:24:57.762Z,0
2017-01-18T02:25:57.738Z,0
2017-01-18T02:26:57.705Z,0
2017-01-18T02:27:57.732Z,0
2017-01-18T02:28:57.641Z,0
2017-01-18T02:29:57.216Z,0
2017-01-18T02:30:56.432Z,0
2017-01-18T02:31:57.147Z,0
2017-01-18T02:32:57.120Z,0
2017-01-18T02:33:57.108Z,0
2017-01-18T02:34:57.111Z,0
2017-01-18T02:35:57.042Z,0
2017-01-18T02:36:57.007Z,0
2017-01-18T02:37:57.370Z,0
2017-01-18T02:38:57.346Z,0
2017-01-18T02:39:56.953Z,0
2017-01-18T02:40:57.313Z,0
2017-01-18T02:41:56.458Z,0
2017-01-18T02:42:57.225Z,0
2017-01-18T02:43:57.198Z,0
2017-01-18T02:44:57.165Z,0
2017-01-18T02:45:57.185Z,0
2017-01-18T02:46:56.710Z,0
2017-01-18T02:47:57.079Z,0
2017-01-18T02:48:57.050Z,0
2017-01-18T02:49:56.620Z,0
2017-01-18T02:50:56.991Z,0
2017-01-18T02:51:56.564Z,0
2017-01-18T02:52:55.732Z,0
2017-01-18T02:53:56.501Z,0
2017-01-18T02:54:56.082Z,0
2017-01-18T02:55:56.847Z,0
2017-01-18T02:56:56.810Z,0
2017-01-18T02:57:56.678Z,0
2017-01-18T02:58:56.021Z,0
2017-01-18T02:59:55.532Z,0
2017-01-18T03:00:56.373Z,0
2017-01-18T03:01:56.269Z,0
2017-01-18T03:02:56.234Z,0
2017-01-18T03:03:56.601Z,0
2017-01-18T03:04:55.820Z,0
2017-01-18T03:05:56.144Z,0
2017-01-18T03:06:56.526Z,0
2017-01-18T03:07:56.478Z,0
2017-01-18T03:08:56.459Z,0
2017-01-18T03:09:56.037Z,0
2017-01-18T03:10:56.444Z,0
2017-01-18T03:11:56.361Z,0
2017-01-18T03:12:56.330Z,0
2017-01-18T03:13:55.901Z,0
2017-01-18T03:14:55.880Z,0
2017-01-18T03:15:56.246Z,0
2017-01-18T03:16:55.822Z,0
2017-01-18T03:17:56.188Z,0
2017-01-18T03:18:55.755Z,0
2017-01-18T03:19:56.123Z,0
2017-01-18T03:20:55.697Z,0
2017-01-18T03:21:56.069Z,0
2017-01-18T03:22:56.039Z,0
2017-01-18T03:23:55.614Z,0
2017-01-18T03:24:55.885Z,0
2017-01-18T03:25:55.158Z,0
2017-01-18T03:26:55.920Z,0
2017-01-18T03:27:55.901Z,0
2017-01-18T03:28:55.516Z,0
2017-01-18T03:29:55.434Z,0
2017-01-18T03:30:55.812Z,0
2017-01-18T03:31:55.382Z,0
2017-01-18T03:32:55.793Z,0
2017-01-18T03:33:55.724Z,0
2017-01-18T03:34:55.690Z,0
2017-01-18T03:35:55.681Z,0
2017-01-18T03:36:55.634Z,0
2017-01-18T03:37:55.631Z,0
2017-01-18T03:38:55.573Z,0
2017-01-18T03:39:55.634Z,0
2017-01-18T03:40:54.709Z,0
2017-01-18T03:41:55.080Z,0
2017-01-18T03:42:55.448Z,0
2017-01-18T03:43:55.069Z,0
2017-01-18T03:44:55.448Z,0
2017-01-18T03:45:55.359Z,0
2017-01-18T03:46:55.347Z,0
2017-01-18T03:47:54.508Z,0
2017-01-18T03:48:55.272Z,0
2017-01-18T03:49:54.896Z,0
2017-01-18T03:50:55.267Z,0
2017-01-18T03:51:54.391Z,0
2017-01-18T03:52:54.352Z,0
2017-01-18T03:53:55.113Z,0
2017-01-18T03:54:54.717Z,0
2017-01-18T03:55:55.112Z,0
2017-01-18T03:56:55.028Z,0
2017-01-18T03:57:54.596Z,0
2017-01-18T03:58:54.179Z,0
2017-01-18T03:59:54.549Z,0
2017-01-18T04:00:54.120Z,0
2017-01-18T04:01:54.913Z,0
2017-01-18T04:02:54.854Z,0
2017-01-18T04:03:54.829Z,0
2017-01-18T04:04:54.389Z,0
2017-01-18T04:05:54.759Z,0
2017-01-18T04:06:54.387Z,0
2017-01-18T04:07:54.297Z,0
2017-01-18T04:08:54.679Z,0
2017-01-18T04:09:54.649Z,0
2017-01-18T04:10:53.810Z,0
2017-01-18T04:11:54.231Z,0
2017-01-18T04:12:54.555Z,0
2017-01-18T04:13:54.134Z,0
2017-01-18T04:14:54.529Z,0
2017-01-18T04:15:54.466Z,0
2017-01-18T04:16:54.492Z,0
2017-01-18T04:17:54.459Z,0
2017-01-18T04:18:54.474Z,0
2017-01-18T04:19:53.549Z,0
2017-01-18T04:20:54.312Z,0
2017-01-18T04:21:53.537Z,0
2017-01-18T04:22:53.870Z,0
2017-01-18T04:23:54.227Z,0
2017-01-18T04:24:53.841Z,0
2017-01-18T04:25:54.173Z,0
2017-01-18T04:26:54.144Z,0
2017-01-18T04:27:53.324Z,0
2017-01-18T04:28:53.713Z,0
2017-01-18T04:29:54.060Z,0
2017-01-18T04:30:53.616Z,0
2017-01-18T04:31:53.587Z,0
2017-01-18T04:32:53.157Z,0
2017-01-18T04:33:53.920Z,0
2017-01-18T04:34:53.899Z,0
2017-01-18T04:35:53.070Z,0
2017-01-18T04:36:53.038Z,0
2017-01-18T04:37:53.405Z,0
2017-01-18T04:38:53.778Z,0
2017-01-18T04:39:53.749Z,0
2017-01-18T04:40:53.323Z,0
2017-01-18T04:41:53.291Z,0
2017-01-18T04:42:52.859Z,0
2017-01-18T04:43:53.626Z,0
2017-01-18T04:44:53.196Z,0
2017-01-18T04:45:53.225Z,0
2017-01-18T04:46:53.542Z,0
2017-01-18T04:47:53.511Z,0
2017-01-18T04:48:53.480Z,0
2017-01-18T04:49:52.678Z,0
2017-01-18T04:50:53.469Z,0
2017-01-18T04:51:52.994Z,0
2017-01-18T04:52:53.354Z,0
2017-01-18T04:53:52.963Z,0
2017-01-18T04:54:53.294Z,0
2017-01-18T04:55:53.273Z,0
2017-01-18T04:56:52.836Z,0
2017-01-18T04:57:53.212Z,0
2017-01-18T04:58:53.181Z,0
2017-01-18T04:59:53.146Z,0
2017-01-18T05:00:52.723Z,0
2017-01-18T05:01:53.095Z,0
2017-01-18T05:02:52.657Z,0
2017-01-18T05:03:52.637Z,0
2017-01-18T05:04:52.202Z,0
2017-01-18T05:05:52.606Z,0
2017-01-18T05:06:52.937Z,0
2017-01-18T05:07:52.507Z,0
2017-01-18T05:08:52.874Z,0
2017-01-18T05:09:52.845Z,0
2017-01-18T05:10:52.818Z,0
2017-01-18T05:11:52.785Z,0
2017-01-18T05:12:52.412Z,0
2017-01-18T05:13:52.722Z,0
2017-01-18T05:14:52.301Z,0
2017-01-18T05:15:52.166Z,0
2017-01-18T05:16:52.233Z,0
2017-01-18T05:17:52.209Z,0
2017-01-18T05:18:52.183Z,0
2017-01-18T05:19:52.543Z,0
2017-01-18T05:20:51.372Z,0
2017-01-18T05:21:52.136Z,0
2017-01-18T05:22:52.456Z,0
2017-01-18T05:23:52.032Z,0
2017-01-18T05:24:52.392Z,0
2017-01-18T05:25:52.363Z,0
2017-01-18T05:26:51.936Z,0
2017-01-18T05:27:52.307Z,0
2017-01-18T05:28:52.276Z,0
2017-01-18T05:29:52.246Z,0
2017-01-18T05:30:52.211Z,0
2017-01-18T05:31:52.238Z,0
2017-01-18T05:32:52.153Z,0
2017-01-18T05:33:52.171Z,0
2017-01-18T05:34:52.084Z,0
2017-01-18T05:35:52.069Z,0
2017-01-18T05:36:51.694Z,0
2017-01-18T05:37:52.005Z,0
2017-01-18T05:38:51.575Z,0
2017-01-18T05:39:51.952Z,0
2017-01-18T05:40:51.918Z,0
2017-01-18T05:41:51.087Z,0
2017-01-18T05:42:51.850Z,0
2017-01-18T05:43:51.430Z,0
2017-01-18T05:44:51.795Z,0
2017-01-18T05:45:51.819Z,0
2017-01-18T05:46:51.736Z,0
2017-01-18T05:47:51.706Z,0
2017-01-18T05:48:51.674Z,0
2017-01-18T05:49:51.646Z,0
2017-01-18T05:50:51.670Z,0
2017-01-18T05:51:51.886Z,0
2017-01-18T05:52:51.159Z,0
2017-01-18T05:53:51.526Z,0
2017-01-18T05:54:51.493Z,0
2017-01-18T05:55:51.061Z,0
2017-01-18T05:56:51.440Z,0
2017-01-18T05:57:51.405Z,0
2017-01-18T05:58:50.642Z,0
2017-01-18T05:59:51.352Z,0
2017-01-18T06:00:51.309Z,0
2017-01-18T06:01:51.285Z,0
2017-01-18T06:02:51.271Z,0
2017-01-18T06:03:51.224Z,0
2017-01-18T06:04:50.788Z,0
2017-01-18T06:05:50.775Z,0
2017-01-18T06:06:50.800Z,0
2017-01-18T06:07:51.111Z,0
2017-01-18T06:08:50.275Z,0
2017-01-18T06:09:50.657Z,0
2017-01-18T06:10:51.015Z,0
2017-01-18T06:11:50.981Z,0
2017-01-18T06:12:51.001Z,0
2017-01-18T06:13:50.968Z,0
2017-01-18T06:14:51.191Z,0
2017-01-18T06:15:50.913Z,0
2017-01-18T06:16:50.844Z,0
2017-01-18T06:17:50.449Z,0
2017-01-18T06:18:50.371Z,0
2017-01-18T06:19:50.345Z,0
2017-01-18T06:20:50.725Z,0
2017-01-18T06:21:50.724Z,0
2017-01-18T06:22:50.257Z,0
2017-01-18T06:23:50.231Z,0
2017-01-18T06:24:50.195Z,0
2017-01-18T06:25:50.578Z,0
2017-01-18T06:26:50.126Z,0
2017-01-18T06:27:49.731Z,0
2017-01-18T06:28:49.754Z,0
2017-01-18T06:29:50.032Z,0
2017-01-18T06:30:50.466Z,0
2017-01-18T06:31:50.383Z,0
2017-01-18T06:32:49.938Z,0
2017-01-18T06:33:50.323Z,0
2017-01-18T06:34:50.285Z,0
2017-01-18T06:35:50.276Z,0
2017-01-18T06:36:49.835Z,0
2017-01-18T06:37:50.194Z,0
2017-01-18T06:38:50.185Z,0
2017-01-18T06:39:50.183Z,0
2017-01-18T06:40:49.705Z,0
2017-01-18T06:41:49.674Z,0
2017-01-18T06:42:50.063Z,0
2017-01-18T06:43:50.039Z,0
2017-01-18T06:44:49.590Z,0
2017-01-18T06:45:49.957Z,0
2017-01-18T06:46:49.538Z,0
2017-01-18T06:47:49.513Z,0
2017-01-18T06:48:49.124Z,0
2017-01-18T06:49:49.036Z,0
2017-01-18T06:50:48.995Z,0
2017-01-18T06:51:49.822Z,0
2017-01-18T06:52:49.743Z,0
2017-01-18T06:53:49.355Z,0
2017-01-18T06:54:49.688Z,0
2017-01-18T06:55:49.255Z,0
2017-01-18T06:56:49.217Z,0
2017-01-18T06:57:49.596Z,0
2017-01-18T06:58:49.174Z,0
2017-01-18T06:59:48.741Z,0
2017-01-18T07:00:49.102Z,0
2017-01-18T07:01:49.478Z,0
2017-01-18T07:02:48.645Z,0
2017-01-18T07:03:49.405Z,0
2017-01-18T07:04:48.593Z,0
2017-01-18T07:05:49.051Z,0
2017-01-18T07:06:49.316Z,0
2017-01-18T07:07:49.283Z,0
2017-01-18T07:08:48.902Z,0
2017-01-18T07:09:49.231Z,0
2017-01-18T07:10:49.196Z,0
2017-01-18T07:11:48.762Z,0
2017-01-18T07:12:49.139Z,0
2017-01-18T07:13:48.708Z,0
2017-01-18T07:14:49.072Z,0
2017-01-18T07:15:48.648Z,5
2017-01-18T07:16:49.042Z,5
2017-01-18T07:17:48.573Z,5
2017-01-18T07:18:49.258Z,5
2017-01-18T07:19:48.969Z,5
2017-01-18T07:20:48.894Z,5
2017-01-18T07:21:48.864Z,5
2017-01-18T07:22:48.431Z,5
2017-01-18T07:23:48.799Z,5
2017-01-18T07:24:47.971Z,5
2017-01-18T07:25:48.348Z,5
2017-01-18T07:26:47.965Z,5
2017-01-18T07:27:48.701Z,10
2017-01-18T07:28:48.686Z,10
2017-01-18T07:29:48.217Z,10
2017-01-18T07:30:48.594Z,10
2017-01-18T07:31:48.560Z,10
2017-01-18T07:32:48.525Z,15
2017-01-18T07:33:48.102Z,15
2017-01-18T07:34:48.463Z,15
2017-01-18T07:35:48.444Z,20
2017-01-18T07:36:48.412Z,20
2017-01-18T07:37:47.985Z,20
2017-01-18T07:38:48.350Z,20
2017-01-18T07:39:47.910Z,20
2017-01-18T07:40:47.881Z,20
2017-01-18T07:41:48.252Z,25
2017-01-18T07:42:47.433Z,25
2017-01-18T07:43:47.799Z,25
2017-01-18T07:44:47.764Z,25
2017-01-18T07:45:48.141Z,30
2017-01-18T07:46:47.308Z,35
2017-01-18T07:47:47.675Z,35
2017-01-18T07:48:47.652Z,35
2017-01-18T07:49:47.621Z,40
2017-01-18T07:50:47.181Z,40
2017-01-18T07:51:47.554Z,45
2017-01-18T07:52:47.919Z,45
2017-01-18T07:53:47.907Z,45
2017-01-18T07:54:47.516Z,45
2017-01-18T07:55:47.881Z,45
2017-01-18T07:56:47.802Z,45
2017-01-18T07:57:46.977Z,50
2017-01-18T07:58:47.742Z,50
2017-01-18T07:59:47.555Z,55
2017-01-18T08:00:47.685Z,55
2017-01-18T08:01:47.248Z,60
2017-01-18T08:02:47.626Z,70
2017-01-18T08:03:46.796Z,70
2017-01-18T08:04:47.157Z,80
2017-01-18T08:05:47.561Z,85
2017-01-18T08:06:47.512Z,85
2017-01-18T08:07:47.085Z,95
2017-01-18T08:08:47.038Z,95
2017-01-18T08:09:47.422Z,105
2017-01-18T08:10:47.430Z,105
2017-01-18T08:11:47.353Z,105
2017-01-18T08:12:47.324Z,105
2017-01-18T08:13:47.313Z,110
2017-01-18T08:14:46.870Z,110
2017-01-18T08:15:47.237Z,110
2017-01-18T08:16:46.810Z,110
2017-01-18T08:17:46.775Z,100
2017-01-18T08:18:46.357Z,85
2017-01-18T08:19:47.222Z,75
2017-01-18T08:20:45.897Z,75
2017-01-18T08:21:47.370Z,75
2017-01-18T08:22:46.233Z,75
2017-01-18T08:23:46.612Z,75
2017-01-18T08:24:46.258Z,75
2017-01-18T08:25:46.552Z,80
2017-01-18T08:26:46.232Z,80
2017-01-18T08:27:46.501Z,80
2017-01-18T08:28:46.872Z,80
2017-01-18T08:29:46.055Z,80
2017-01-18T08:30:46.816Z,80
2017-01-18T08:31:46.778Z,80
2017-01-18T08:32:47.057Z,80
2017-01-18T08:33:46.726Z,80
2017-01-18T08:34:45.911Z,80
2017-01-18T08:35:46.321Z,80
2017-01-18T08:36:46.254Z,80
2017-01-18T08:37:46.239Z,85
2017-01-18T08:38:46.588Z,85
2017-01-18T08:39:45.749Z,85
2017-01-18T08:40:46.159Z,90
2017-01-18T08:41:46.094Z,95
2017-01-18T08:42:46.503Z,95
2017-01-18T08:43:46.336Z,100
2017-01-18T08:44:46.511Z,105
2017-01-18T08:45:45.980Z,105
2017-01-18T08:46:46.351Z,110
2017-01-18T08:47:46.323Z,115
2017-01-18T08:48:46.292Z,115
2017-01-18T08:49:46.259Z,120
2017-01-18T08:50:46.286Z,120
2017-01-18T08:51:45.796Z,120
2017-01-18T08:52:45.775Z,120
2017-01-18T08:53:45.750Z,120
2017-01-18T08:54:46.110Z,125
2017-01-18T08:55:46.091Z,120
2017-01-18T08:56:45.662Z,120
2017-01-18T08:57:46.033Z,120
2017-01-18T08:58:45.585Z,125
2017-01-18T08:59:45.172Z,125
2017-01-18T09:00:45.540Z,125
2017-01-18T09:01:45.916Z,125
2017-01-18T09:02:45.138Z,125
2017-01-18T09:03:45.461Z,130
2017-01-18T09:04:44.634Z,125
2017-01-18T09:05:45.407Z,125
2017-01-18T09:06:45.778Z,125
2017-01-18T09:07:45.793Z,120
2017-01-18T09:08:44.913Z,120
2017-01-18T09:09:45.798Z,120
2017-01-18T09:10:45.698Z,120
2017-01-18T09:11:45.624Z,125
2017-01-18T09:12:45.601Z,125
2017-01-18T09:13:45.177Z,135
2017-01-18T09:14:45.132Z,140
2017-01-18T09:15:45.497Z,145
2017-01-18T09:16:45.076Z,145
2017-01-18T09:17:45.454Z,140
2017-01-18T09:18:44.620Z,140
2017-01-18T09:19:45.392Z,150
2017-01-18T09:20:44.972Z,150
2017-01-18T09:21:45.336Z,145
2017-01-18T09:22:44.907Z,145
2017-01-18T09:23:45.276Z,145
2017-01-18T09:24:45.246Z,145
2017-01-18T09:25:44.427Z,145
2017-01-18T09:26:45.192Z,150
2017-01-18T09:27:44.863Z,150
2017-01-18T09:28:45.139Z,155
2017-01-18T09:29:45.344Z,160
2017-01-18T09:30:45.079Z,160
2017-01-18T09:31:45.047Z,165
2017-01-18T09:32:44.208Z,170
2017-01-18T09:33:44.585Z,170
2017-01-18T09:34:44.552Z,175
2017-01-18T09:35:44.922Z,175
2017-01-18T09:36:44.491Z,175
2017-01-18T09:37:44.865Z,175
2017-01-18T09:38:44.040Z,175
2017-01-18T09:39:44.864Z,170
2017-01-18T09:40:44.780Z,175
2017-01-18T09:41:43.960Z,170
2017-01-18T09:42:44.719Z,170
2017-01-18T09:43:44.691Z,175
2017-01-18T09:44:44.662Z,175
2017-01-18T09:45:43.832Z,185
2017-01-18T09:46:44.615Z,190
2017-01-18T09:47:44.172Z,190
2017-01-18T09:48:44.554Z,195
2017-01-18T09:49:44.117Z,190
2017-01-18T09:50:44.480Z,195
2017-01-18T09:51:44.463Z,195
2017-01-18T09:52:44.479Z,190
2017-01-18T09:53:44.414Z,190
2017-01-18T09:54:43.565Z,195
2017-01-18T09:55:43.946Z,195
2017-01-18T09:56:44.314Z,200
2017-01-18T09:57:44.290Z,200
2017-01-18T09:58:44.254Z,200
2017-01-18T09:59:43.887Z,200
2017-01-18T10:00:44.198Z,205
2017-01-18T10:01:44.181Z,200
2017-01-18T10:02:43.389Z,200
2017-01-18T10:03:44.130Z,200
2017-01-18T10:04:43.711Z,195
2017-01-18T10:05:44.059Z,190
2017-01-18T10:06:44.030Z,190
2017-01-18T10:07:43.598Z,190
2017-01-18T10:08:43.972Z,195
2017-01-18T10:09:43.543Z,200
2017-01-18T10:10:43.966Z,200
2017-01-18T10:11:43.943Z,200
2017-01-18T10:12:43.863Z,200
2017-01-18T10:13:43.839Z,205
2017-01-18T10:14:44.251Z,200
2017-01-18T10:15:43.416Z,195
2017-01-18T10:16:43.745Z,200
2017-01-18T10:17:42.910Z,205
2017-01-18T10:18:43.283Z,205
2017-01-18T10:19:43.310Z,200
2017-01-18T10:20:42.878Z,200
2017-01-18T10:21:43.247Z,200
2017-01-18T10:22:43.622Z,200
2017-01-18T10:23:42.352Z,205
2017-01-18T10:24:43.115Z,205
2017-01-18T10:25:43.482Z,205
2017-01-18T10:26:43.467Z,200
2017-01-18T10:27:43.028Z,190
2017-01-18T10:28:43.003Z,190
2017-01-18T10:29:42.584Z,190
2017-01-18T10:30:42.950Z,190
2017-01-18T10:31:43.319Z,190
2017-01-18T10:32:42.890Z,195
2017-01-18T10:33:43.267Z,200
2017-01-18T10:34:43.238Z,205
2017-01-18T10:35:42.872Z,215
2017-01-18T10:36:42.783Z,220
2017-01-18T10:37:42.008Z,225
2017-01-18T10:38:42.758Z,230
2017-01-18T10:39:43.108Z,235
2017-01-18T10:40:42.724Z,240
2017-01-18T10:41:43.089Z,240
2017-01-18T10:42:42.670Z,230
2017-01-18T10:43:42.587Z,235
2017-01-18T10:44:42.645Z,235
2017-01-18T10:45:42.918Z,225
2017-01-18T10:46:42.096Z,215
2017-01-18T10:47:42.478Z,205
2017-01-18T10:48:43.047Z,185
2017-01-18T10:49:42.452Z,175
2017-01-18T10:50:42.384Z,155
2017-01-18T10:51:42.357Z,135
2017-01-18T10:52:42.722Z,135
2017-01-18T10:53:42.703Z,125
2017-01-18T10:54:42.721Z,130
2017-01-18T10:55:42.280Z,145
2017-01-18T10:56:42.276Z,155
2017-01-18T10:57:42.592Z,160
2017-01-18T10:58:42.561Z,160
2017-01-18T10:59:42.143Z,165
2017-01-18T11:00:42.504Z,165
2017-01-18T11:01:42.489Z,145
2017-01-18T11:02:42.450Z,130
2017-01-18T11:03:42.480Z,130
2017-01-18T11:04:42.382Z,130
2017-01-18T11:05:42.362Z,130
2017-01-18T11:06:42.345Z,155
2017-01-18T11:07:42.310Z,175
2017-01-18T11:08:41.893Z,180
2017-01-18T11:09:42.252Z,195
2017-01-18T11:10:42.230Z,190
2017-01-18T11:11:41.427Z,195
2017-01-18T11:12:41.364Z,195
2017-01-18T11:13:42.139Z,205
2017-01-18T11:14:42.101Z,205
2017-01-18T11:15:41.331Z,205
2017-01-18T11:16:42.047Z,195
2017-01-18T11:17:41.660Z,190
2017-01-18T11:18:41.999Z,190
2017-01-18T11:19:41.369Z,180
2017-01-18T11:20:41.938Z,175
2017-01-18T11:21:41.913Z,170
2017-01-18T11:22:41.800Z,170
2017-01-18T11:23:41.451Z,170
2017-01-18T11:24:41.875Z,175
2017-01-18T11:25:41.858Z,175
2017-01-18T11:26:41.767Z,175
2017-01-18T11:27:41.750Z,175
2017-01-18T11:28:41.326Z,175
2017-01-18T11:29:41.202Z,175
2017-01-18T11:30:41.258Z,170
2017-01-18T11:31:41.629Z,170
2017-01-18T11:32:41.210Z,175
2017-01-18T11:33:41.233Z,180
2017-01-18T11:34:41.562Z,185
2017-01-18T11:35:41.162Z,195
2017-01-18T11:36:41.487Z,205
2017-01-18T11:37:41.454Z,210
2017-01-18T11:38:40.630Z,215
2017-01-18T11:39:41.011Z,215
2017-01-18T11:40:41.384Z,215
2017-01-18T11:41:41.654Z,215
2017-01-18T11:42:41.324Z,210
2017-01-18T11:43:40.492Z,205
2017-01-18T11:44:41.269Z,195
2017-01-18T11:45:40.840Z,190
2017-01-18T11:46:40.817Z,200
2017-01-18T11:47:41.186Z,200
2017-01-18T11:48:41.159Z,205
2017-01-18T11:49:40.725Z,215
2017-01-18T11:50:41.150Z,220
2017-01-18T11:51:41.067Z,230
2017-01-18T11:52:40.643Z,230
2017-01-18T11:53:41.010Z,225
2017-01-18T11:54:40.988Z,220
2017-01-18T11:55:40.220Z,220
2017-01-18T11:56:40.931Z,220
2017-01-18T11:57:40.579Z,220
2017-01-18T11:58:40.909Z,220
2017-01-18T11:59:40.883Z,220
2017-01-18T12:00:40.428Z,225
2017-01-18T12:01:40.403Z,225
2017-01-18T12:02:40.372Z,230
2017-01-18T12:03:40.355Z,230
2017-01-18T12:04:40.716Z,230
2017-01-18T12:05:40.691Z,235
2017-01-18T12:06:40.657Z,235
2017-01-18T12:07:40.636Z,230
2017-01-18T12:08:40.213Z,240
2017-01-18T12:09:40.574Z,240
2017-01-18T12:10:40.558Z,240
2017-01-18T12:11:40.531Z,240
2017-01-18T12:12:40.102Z,240
2017-01-18T12:13:40.471Z,235
2017-01-18T12:14:40.041Z,230
2017-01-18T12:15:40.030Z,230
2017-01-18T12:16:39.987Z,240
2017-01-18T12:17:40.369Z,235
2017-01-18T12:18:40.322Z,220
2017-01-18T12:19:40.315Z,215
2017-01-18T12:20:39.885Z,200
2017-01-18T12:21:39.866Z,190
2017-01-18T12:22:39.825Z,185
2017-01-18T12:23:40.201Z,180
2017-01-18T12:24:39.775Z,175
2017-01-18T12:25:40.148Z,180
2017-01-18T12:26:38.932Z,190
2017-01-18T12:27:40.086Z,205
2017-01-18T12:28:40.072Z,210
2017-01-18T12:29:39.634Z,215
2017-01-18T12:30:40.005Z,215
2017-01-18T12:31:39.628Z,220
2017-01-18T12:32:39.549Z,220
2017-01-18T12:33:39.589Z,215
2017-01-18T12:34:39.909Z,200
2017-01-18T12:35:39.875Z,180
2017-01-18T12:36:39.750Z,160
2017-01-18T12:37:39.852Z,155
2017-01-18T12:38:39.393Z,150
2017-01-18T12:39:39.764Z,145
2017-01-18T12:40:39.349Z,145
2017-01-18T12:41:39.716Z,150
2017-01-18T12:42:39.681Z,150
2017-01-18T12:43:39.336Z,145
2017-01-18T12:44:39.222Z,135
2017-01-18T12:45:39.593Z,135
2017-01-18T12:46:39.573Z,135
2017-01-18T12:47:39.554Z,135
2017-01-18T12:48:38.717Z,140
2017-01-18T12:49:39.502Z,150
2017-01-18T12:50:39.114Z,155
2017-01-18T12:51:39.042Z,165
2017-01-18T12:52:39.014Z,170
2017-01-18T12:53:39.486Z,160
2017-01-18T12:54:38.595Z,155
2017-01-18T12:55:39.327Z,150
2017-01-18T12:56:38.926Z,155
2017-01-18T12:57:38.883Z,160
2017-01-18T12:58:38.849Z,175
2017-01-18T12:59:38.870Z,190
2017-01-18T13:00:38.801Z,190
2017-01-18T13:01:38.765Z,190
2017-01-18T13:02:39.140Z,190
2017-01-18T13:03:38.755Z,195
2017-01-18T13:04:38.680Z,190
2017-01-18T13:05:38.700Z,190
2017-01-18T13:06:39.025Z,190
2017-01-18T13:07:38.610Z,190
2017-01-18T13:08:38.993Z,195
2017-01-18T13:09:38.539Z,205
2017-01-18T13:10:38.912Z,215
2017-01-18T13:11:38.891Z,225
2017-01-18T13:12:37.670Z,225
2017-01-18T13:13:38.049Z,220
2017-01-18T13:14:38.822Z,215
2017-01-18T13:15:38.404Z,215
2017-01-18T13:16:38.349Z,210
2017-01-18T13:17:38.335Z,200
2017-01-18T13:18:38.296Z,195
2017-01-18T13:19:38.662Z,190
2017-01-18T13:20:38.243Z,190
2017-01-18T13:21:38.619Z,185
2017-01-18T13:22:38.499Z,180
2017-01-18T13:23:38.615Z,175
2017-01-18T13:24:38.144Z,175
2017-01-18T13:25:38.508Z,170
2017-01-18T13:26:38.488Z,170
2017-01-18T13:27:38.110Z,165
2017-01-18T13:28:38.528Z,165
2017-01-18T13:29:37.601Z,165
2017-01-18T13:30:38.372Z,160
2017-01-18T13:31:37.559Z,155
2017-01-18T13:32:38.322Z,155
2017-01-18T13:33:37.948Z,150
2017-01-18T13:34:38.313Z,150
2017-01-18T13:35:38.253Z,145
2017-01-18T13:36:38.215Z,140
2017-01-18T13:37:38.249Z,135
2017-01-18T13:38:38.165Z,140
2017-01-18T13:39:38.141Z,140
2017-01-18T13:40:38.118Z,140
2017-01-18T13:41:37.926Z,140
2017-01-18T13:42:38.103Z,140
2017-01-18T13:43:38.032Z,135
2017-01-18T13:44:37.198Z,135
2017-01-18T13:45:37.566Z,130
2017-01-18T13:46:37.942Z,125
2017-01-18T13:47:37.517Z,120
2017-01-18T13:48:37.480Z,120
2017-01-18T13:49:37.467Z,115
2017-01-18T13:50:37.826Z,110
2017-01-18T13:51:37.407Z,110
2017-01-18T13:52:37.415Z,105
2017-01-18T13:53:36.959Z,105
2017-01-18T13:54:37.719Z,105
2017-01-18T13:55:36.892Z,110
2017-01-18T13:56:37.677Z,115
2017-01-18T13:57:36.839Z,120
2017-01-18T13:58:36.814Z,125
2017-01-18T13:59:36.783Z,130
2017-01-18T14:00:37.164Z,135
2017-01-18T14:01:37.829Z,135
2017-01-18T14:02:36.757Z,135
2017-01-18T14:03:37.076Z,135
2017-01-18T14:04:37.453Z,130
2017-01-18T14:05:37.423Z,130
2017-01-18T14:06:36.201Z,125
2017-01-18T14:07:37.369Z,120
2017-01-18T14:08:36.990Z,115
2017-01-18T14:09:36.511Z,110
2017-01-18T14:10:37.190Z,105
2017-01-18T14:11:37.255Z,105
2017-01-18T14:12:37.232Z,100
2017-01-18T14:13:37.198Z,100
2017-01-18T14:14:37.225Z,100
2017-01-18T14:15:36.800Z,95
2017-01-18T14:16:36.772Z,95
2017-01-18T14:17:37.090Z,95
2017-01-18T14:18:36.662Z,95